sensor_id;sensor_type;location;lat;lon;timestamp;P1;durP1;ratioP1;P2;durP2;ratioP2
62024;SDS011;47978;49.118;12.146;2022-07-06T00:00:21;1.80;;;1.33;;
62024;SDS011;47978;49.118;12.146;2022-07-06T00:02:47;1.73;;;1.17;;
62024;SDS011;47978;49.118;12.146;2022-07-06T00:05:14;1.77;;;1.10;;
62024;SDS011;47978;49.118;12.146;2022-07-06T00:07:41;2.13;;;1.20;;
62024;SDS011;47978;49.118;12.146;2022-07-06T00:10:07;1.85;;;1.15;;
62024;SDS011;47978;49.118;12.146;2022-07-06T00:12:35;1.83;;;1.20;;
62024;SDS011;47978;49.118;12.146;2022-07-06T00:15:02;1.27;;;1.00;;
62024;SDS011;47978;49.118;12.146;2022-07-06T00:17:29;2.70;;;1.02;;
62024;SDS011;47978;49.118;12.146;2022-07-06T00:19:56;1.63;;;1.15;;
62024;SDS011;47978;49.118;12.146;2022-07-06T00:22:22;4.10;;;1.20;;
62024;SDS011;47978;49.118;12.146;2022-07-06T00:24:49;1.45;;;1.10;;
62024;SDS011;47978;49.118;12.146;2022-07-06T00:27:15;1.83;;;1.45;;
62024;SDS011;47978;49.118;12.146;2022-07-06T00:29:43;1.88;;;0.98;;
62024;SDS011;47978;49.118;12.146;2022-07-06T00:32:10;3.58;;;1.10;;
62024;SDS011;47978;49.118;12.146;2022-07-06T00:34:36;1.77;;;0.98;;
62024;SDS011;47978;49.118;12.146;2022-07-06T00:37:03;1.63;;;1.23;;
62024;SDS011;47978;49.118;12.146;2022-07-06T00:39:30;1.92;;;1.30;;
62024;SDS011;47978;49.118;12.146;2022-07-06T00:41:56;1.88;;;1.30;;
62024;SDS011;47978;49.118;12.146;2022-07-06T00:44:23;2.50;;;1.35;;
62024;SDS011;47978;49.118;12.146;2022-07-06T00:46:51;2.55;;;1.08;;
62024;SDS011;47978;49.118;12.146;2022-07-06T00:49:18;1.40;;;1.20;;
62024;SDS011;47978;49.118;12.146;2022-07-06T00:51:45;1.60;;;1.10;;
62024;SDS011;47978;49.118;12.146;2022-07-06T00:54:12;1.67;;;1.48;;
62024;SDS011;47978;49.118;12.146;2022-07-06T00:56:38;1.38;;;1.10;;
62024;SDS011;47978;49.118;12.146;2022-07-06T00:59:05;1.60;;;1.30;;
62024;SDS011;47978;49.118;12.146;2022-07-06T01:01:31;1.55;;;1.10;;
62024;SDS011;47978;49.118;12.146;2022-07-06T01:04:00;2.00;;;1.10;;
62024;SDS011;47978;49.118;12.146;2022-07-06T01:06:27;2.75;;;1.52;;
62024;SDS011;47978;49.118;12.146;2022-07-06T01:08:53;1.95;;;1.40;;
62024;SDS011;47978;49.118;12.146;2022-07-06T01:11:20;4.78;;;1.27;;
62024;SDS011;47978;49.118;12.146;2022-07-06T01:13:47;1.75;;;1.20;;
62024;SDS011;47978;49.118;12.146;2022-07-06T01:16:14;1.75;;;1.25;;
62024;SDS011;47978;49.118;12.146;2022-07-06T01:18:41;2.78;;;1.35;;
62024;SDS011;47978;49.118;12.146;2022-07-06T01:21:10;3.65;;;1.30;;
62024;SDS011;47978;49.118;12.146;2022-07-06T01:23:41;1.38;;;1.17;;
62024;SDS011;47978;49.118;12.146;2022-07-06T01:26:10;2.78;;;1.40;;
62024;SDS011;47978;49.118;12.146;2022-07-06T01:28:38;1.73;;;1.20;;
62024;SDS011;47978;49.118;12.146;2022-07-06T01:31:05;2.72;;;1.33;;
62024;SDS011;47978;49.118;12.146;2022-07-06T01:33:40;2.75;;;1.40;;
62024;SDS011;47978;49.118;12.146;2022-07-06T01:36:06;2.28;;;1.48;;
62024;SDS011;47978;49.118;12.146;2022-07-06T01:38:42;1.95;;;1.20;;
62024;SDS011;47978;49.118;12.146;2022-07-06T01:41:10;1.77;;;1.40;;
62024;SDS011;47978;49.118;12.146;2022-07-06T01:43:36;1.20;;;1.10;;
62024;SDS011;47978;49.118;12.146;2022-07-06T01:46:03;2.92;;;1.25;;
62024;SDS011;47978;49.118;12.146;2022-07-06T01:48:30;3.95;;;1.50;;
62024;SDS011;47978;49.118;12.146;2022-07-06T01:50:56;1.55;;;1.20;;
62024;SDS011;47978;49.118;12.146;2022-07-06T01:53:24;2.30;;;1.17;;
62024;SDS011;47978;49.118;12.146;2022-07-06T01:55:51;2.33;;;1.42;;
62024;SDS011;47978;49.118;12.146;2022-07-06T01:58:17;1.45;;;1.30;;
62024;SDS011;47978;49.118;12.146;2022-07-06T02:00:45;2.15;;;1.50;;
62024;SDS011;47978;49.118;12.146;2022-07-06T02:03:11;2.13;;;1.40;;
62024;SDS011;47978;49.118;12.146;2022-07-06T02:05:38;2.83;;;1.40;;
62024;SDS011;47978;49.118;12.146;2022-07-06T02:08:04;2.05;;;1.30;;
62024;SDS011;47978;49.118;12.146;2022-07-06T02:10:32;3.05;;;1.58;;
62024;SDS011;47978;49.118;12.146;2022-07-06T02:12:59;1.88;;;1.30;;
62024;SDS011;47978;49.118;12.146;2022-07-06T02:15:25;1.20;;;1.10;;
62024;SDS011;47978;49.118;12.146;2022-07-06T02:17:52;1.42;;;1.25;;
62024;SDS011;47978;49.118;12.146;2022-07-06T02:20:19;1.25;;;1.13;;
62024;SDS011;47978;49.118;12.146;2022-07-06T02:22:45;2.95;;;1.40;;
62024;SDS011;47978;49.118;12.146;2022-07-06T02:25:12;2.28;;;1.40;;
62024;SDS011;47978;49.118;12.146;2022-07-06T02:27:40;2.22;;;1.60;;
62024;SDS011;47978;49.118;12.146;2022-07-06T02:30:07;1.65;;;1.30;;
62024;SDS011;47978;49.118;12.146;2022-07-06T02:32:34;2.72;;;1.40;;
62024;SDS011;47978;49.118;12.146;2022-07-06T02:35:00;2.83;;;1.50;;
62024;SDS011;47978;49.118;12.146;2022-07-06T02:37:27;1.50;;;1.27;;
62024;SDS011;47978;49.118;12.146;2022-07-06T02:39:53;4.25;;;1.35;;
62024;SDS011;47978;49.118;12.146;2022-07-06T02:42:20;3.25;;;1.73;;
62024;SDS011;47978;49.118;12.146;2022-07-06T02:44:48;1.77;;;1.50;;
62024;SDS011;47978;49.118;12.146;2022-07-06T02:47:14;2.90;;;1.30;;
62024;SDS011;47978;49.118;12.146;2022-07-06T02:49:41;2.10;;;1.50;;
62024;SDS011;47978;49.118;12.146;2022-07-06T02:52:08;3.92;;;1.42;;
62024;SDS011;47978;49.118;12.146;2022-07-06T02:54:34;1.40;;;1.27;;
62024;SDS011;47978;49.118;12.146;2022-07-06T02:57:01;1.95;;;1.30;;
62024;SDS011;47978;49.118;12.146;2022-07-06T02:59:27;3.95;;;1.50;;
62024;SDS011;47978;49.118;12.146;2022-07-06T03:01:55;1.98;;;1.50;;
62024;SDS011;47978;49.118;12.146;2022-07-06T03:04:22;1.70;;;1.40;;
62024;SDS011;47978;49.118;12.146;2022-07-06T03:06:49;2.35;;;1.40;;
62024;SDS011;47978;49.118;12.146;2022-07-06T03:09:15;2.60;;;1.50;;
62024;SDS011;47978;49.118;12.146;2022-07-06T03:11:42;2.47;;;1.33;;
62024;SDS011;47978;49.118;12.146;2022-07-06T03:14:08;1.95;;;1.40;;
62024;SDS011;47978;49.118;12.146;2022-07-06T03:16:35;2.60;;;1.40;;
62024;SDS011;47978;49.118;12.146;2022-07-06T03:19:03;1.42;;;1.33;;
62024;SDS011;47978;49.118;12.146;2022-07-06T03:21:30;2.47;;;1.30;;
62024;SDS011;47978;49.118;12.146;2022-07-06T03:23:57;2.70;;;1.40;;
62024;SDS011;47978;49.118;12.146;2022-07-06T03:26:24;4.70;;;3.90;;
62024;SDS011;47978;49.118;12.146;2022-07-06T03:28:50;2.60;;;1.58;;
62024;SDS011;47978;49.118;12.146;2022-07-06T03:31:17;3.03;;;1.60;;
62024;SDS011;47978;49.118;12.146;2022-07-06T03:33:44;2.60;;;1.50;;
62024;SDS011;47978;49.118;12.146;2022-07-06T03:36:12;1.55;;;1.45;;
62024;SDS011;47978;49.118;12.146;2022-07-06T03:38:38;1.67;;;1.40;;
62024;SDS011;47978;49.118;12.146;2022-07-06T03:41:05;2.50;;;1.70;;
62024;SDS011;47978;49.118;12.146;2022-07-06T03:43:32;3.97;;;1.63;;
62024;SDS011;47978;49.118;12.146;2022-07-06T03:45:58;1.90;;;1.58;;
62024;SDS011;47978;49.118;12.146;2022-07-06T03:48:25;2.45;;;1.92;;
62024;SDS011;47978;49.118;12.146;2022-07-06T03:50:52;2.15;;;1.88;;
62024;SDS011;47978;49.118;12.146;2022-07-06T03:53:20;2.75;;;1.60;;
62024;SDS011;47978;49.118;12.146;2022-07-06T03:55:47;1.92;;;1.50;;
62024;SDS011;47978;49.118;12.146;2022-07-06T03:58:13;1.90;;;1.55;;
62024;SDS011;47978;49.118;12.146;2022-07-06T04:00:40;1.95;;;1.40;;
62024;SDS011;47978;49.118;12.146;2022-07-06T04:03:07;1.75;;;1.33;;
62024;SDS011;47978;49.118;12.146;2022-07-06T04:05:33;2.80;;;1.58;;
62024;SDS011;47978;49.118;12.146;2022-07-06T04:08:00;2.40;;;1.40;;
62024;SDS011;47978;49.118;12.146;2022-07-06T04:10:28;2.50;;;1.40;;
62024;SDS011;47978;49.118;12.146;2022-07-06T04:12:54;2.63;;;1.50;;
62024;SDS011;47978;49.118;12.146;2022-07-06T04:15:21;1.90;;;1.52;;
62024;SDS011;47978;49.118;12.146;2022-07-06T04:17:47;1.77;;;1.33;;
62024;SDS011;47978;49.118;12.146;2022-07-06T04:20:14;2.95;;;1.70;;
62024;SDS011;47978;49.118;12.146;2022-07-06T04:22:40;4.40;;;1.70;;
62024;SDS011;47978;49.118;12.146;2022-07-06T04:25:07;2.53;;;1.65;;
62024;SDS011;47978;49.118;12.146;2022-07-06T04:27:35;3.60;;;1.40;;
62024;SDS011;47978;49.118;12.146;2022-07-06T04:30:02;1.63;;;1.50;;
62024;SDS011;47978;49.118;12.146;2022-07-06T04:32:30;2.95;;;1.42;;
62024;SDS011;47978;49.118;12.146;2022-07-06T04:34:57;2.30;;;1.42;;
62024;SDS011;47978;49.118;12.146;2022-07-06T04:37:24;3.38;;;1.60;;
62024;SDS011;47978;49.118;12.146;2022-07-06T04:39:50;3.35;;;1.60;;
62024;SDS011;47978;49.118;12.146;2022-07-06T04:42:17;4.72;;;1.50;;
62024;SDS011;47978;49.118;12.146;2022-07-06T04:44:45;2.38;;;1.70;;
62024;SDS011;47978;49.118;12.146;2022-07-06T04:47:11;3.53;;;1.88;;
62024;SDS011;47978;49.118;12.146;2022-07-06T04:49:38;1.83;;;1.60;;
62024;SDS011;47978;49.118;12.146;2022-07-06T04:52:05;1.92;;;1.50;;
62024;SDS011;47978;49.118;12.146;2022-07-06T04:54:32;2.33;;;1.60;;
62024;SDS011;47978;49.118;12.146;2022-07-06T04:56:59;2.03;;;1.40;;
62024;SDS011;47978;49.118;12.146;2022-07-06T04:59:25;2.42;;;1.60;;
62024;SDS011;47978;49.118;12.146;2022-07-06T05:01:53;1.70;;;1.50;;
62024;SDS011;47978;49.118;12.146;2022-07-06T05:04:20;4.57;;;2.05;;
62024;SDS011;47978;49.118;12.146;2022-07-06T05:06:47;1.80;;;1.60;;
62024;SDS011;47978;49.118;12.146;2022-07-06T05:09:13;3.47;;;1.67;;
62024;SDS011;47978;49.118;12.146;2022-07-06T05:11:40;1.88;;;1.65;;
62024;SDS011;47978;49.118;12.146;2022-07-06T05:14:07;2.42;;;1.50;;
62024;SDS011;47978;49.118;12.146;2022-07-06T05:16:33;2.80;;;1.70;;
62024;SDS011;47978;49.118;12.146;2022-07-06T05:19:01;1.80;;;1.40;;
62024;SDS011;47978;49.118;12.146;2022-07-06T05:21:28;3.20;;;1.45;;
62024;SDS011;47978;49.118;12.146;2022-07-06T05:23:55;3.35;;;1.60;;
62024;SDS011;47978;49.118;12.146;2022-07-06T05:26:21;2.78;;;1.20;;
62024;SDS011;47978;49.118;12.146;2022-07-06T05:28:48;3.25;;;1.38;;
62024;SDS011;47978;49.118;12.146;2022-07-06T05:31:15;3.35;;;1.55;;
62024;SDS011;47978;49.118;12.146;2022-07-06T05:33:41;4.40;;;1.50;;
62024;SDS011;47978;49.118;12.146;2022-07-06T05:36:09;2.08;;;1.42;;
62024;SDS011;47978;49.118;12.146;2022-07-06T05:38:36;1.85;;;1.30;;
62024;SDS011;47978;49.118;12.146;2022-07-06T05:41:03;1.88;;;1.38;;
62024;SDS011;47978;49.118;12.146;2022-07-06T05:43:29;3.05;;;1.25;;
62024;SDS011;47978;49.118;12.146;2022-07-06T05:45:56;1.60;;;1.27;;
62024;SDS011;47978;49.118;12.146;2022-07-06T05:48:22;2.22;;;1.23;;
62024;SDS011;47978;49.118;12.146;2022-07-06T05:50:49;2.05;;;1.23;;
62024;SDS011;47978;49.118;12.146;2022-07-06T05:53:17;2.58;;;1.33;;
62024;SDS011;47978;49.118;12.146;2022-07-06T05:55:45;1.83;;;1.30;;
62024;SDS011;47978;49.118;12.146;2022-07-06T05:58:12;2.97;;;1.10;;
62024;SDS011;47978;49.118;12.146;2022-07-06T06:00:39;2.05;;;1.27;;
62024;SDS011;47978;49.118;12.146;2022-07-06T06:03:05;3.28;;;1.38;;
62024;SDS011;47978;49.118;12.146;2022-07-06T06:05:32;2.20;;;1.40;;
62024;SDS011;47978;49.118;12.146;2022-07-06T06:07:59;3.03;;;1.45;;
62024;SDS011;47978;49.118;12.146;2022-07-06T06:10:27;1.95;;;1.20;;
62024;SDS011;47978;49.118;12.146;2022-07-06T06:12:54;3.60;;;1.27;;
62024;SDS011;47978;49.118;12.146;2022-07-06T06:15:20;1.65;;;1.20;;
62024;SDS011;47978;49.118;12.146;2022-07-06T06:17:47;2.17;;;1.10;;
62024;SDS011;47978;49.118;12.146;2022-07-06T06:20:14;1.77;;;1.10;;
62024;SDS011;47978;49.118;12.146;2022-07-06T06:22:44;5.63;;;1.20;;
62024;SDS011;47978;49.118;12.146;2022-07-06T06:25:11;6.57;;;1.30;;
62024;SDS011;47978;49.118;12.146;2022-07-06T06:27:39;2.83;;;1.20;;
62024;SDS011;47978;49.118;12.146;2022-07-06T06:30:06;1.67;;;0.90;;
62024;SDS011;47978;49.118;12.146;2022-07-06T06:32:34;5.72;;;1.20;;
62024;SDS011;47978;49.118;12.146;2022-07-06T06:35:00;2.45;;;1.00;;
62024;SDS011;47978;49.118;12.146;2022-07-06T06:37:27;2.47;;;1.00;;
62024;SDS011;47978;49.118;12.146;2022-07-06T06:39:53;2.63;;;1.10;;
62024;SDS011;47978;49.118;12.146;2022-07-06T06:42:20;2.55;;;1.15;;
62024;SDS011;47978;49.118;12.146;2022-07-06T06:44:48;3.03;;;0.90;;
62024;SDS011;47978;49.118;12.146;2022-07-06T06:47:14;3.00;;;0.90;;
62024;SDS011;47978;49.118;12.146;2022-07-06T06:49:41;1.77;;;0.80;;
62024;SDS011;47978;49.118;12.146;2022-07-06T06:52:08;1.98;;;0.90;;
62024;SDS011;47978;49.118;12.146;2022-07-06T06:54:54;2.40;;;1.27;;
62024;SDS011;47978;49.118;12.146;2022-07-06T06:57:21;1.58;;;1.00;;
62024;SDS011;47978;49.118;12.146;2022-07-06T06:59:48;2.13;;;0.85;;
62024;SDS011;47978;49.118;12.146;2022-07-06T07:02:15;2.55;;;0.90;;
62024;SDS011;47978;49.118;12.146;2022-07-06T07:04:42;1.25;;;0.80;;
62024;SDS011;47978;49.118;12.146;2022-07-06T07:07:08;1.38;;;0.93;;
62024;SDS011;47978;49.118;12.146;2022-07-06T07:09:35;4.30;;;0.90;;
62024;SDS011;47978;49.118;12.146;2022-07-06T07:12:02;2.25;;;0.85;;
62024;SDS011;47978;49.118;12.146;2022-07-06T07:14:29;1.13;;;0.80;;
62024;SDS011;47978;49.118;12.146;2022-07-06T07:16:57;3.15;;;1.13;;
62024;SDS011;47978;49.118;12.146;2022-07-06T07:19:24;1.50;;;0.82;;
62024;SDS011;47978;49.118;12.146;2022-07-06T07:21:50;2.00;;;1.00;;
62024;SDS011;47978;49.118;12.146;2022-07-06T07:24:17;2.65;;;1.20;;
62024;SDS011;47978;49.118;12.146;2022-07-06T07:26:43;4.00;;;1.00;;
62024;SDS011;47978;49.118;12.146;2022-07-06T07:29:10;1.95;;;1.05;;
62024;SDS011;47978;49.118;12.146;2022-07-06T07:31:36;2.00;;;1.10;;
62024;SDS011;47978;49.118;12.146;2022-07-06T07:34:04;3.45;;;1.08;;
62024;SDS011;47978;49.118;12.146;2022-07-06T07:36:31;2.13;;;0.90;;
62024;SDS011;47978;49.118;12.146;2022-07-06T07:38:58;1.52;;;1.10;;
62024;SDS011;47978;49.118;12.146;2022-07-06T07:41:24;5.75;;;0.85;;
62024;SDS011;47978;49.118;12.146;2022-07-06T07:43:51;2.55;;;1.02;;
62024;SDS011;47978;49.118;12.146;2022-07-06T07:46:17;1.98;;;1.10;;
62024;SDS011;47978;49.118;12.146;2022-07-06T07:48:44;2.70;;;0.85;;
62024;SDS011;47978;49.118;12.146;2022-07-06T07:51:12;1.92;;;1.02;;
62024;SDS011;47978;49.118;12.146;2022-07-06T07:53:39;2.67;;;1.17;;
62024;SDS011;47978;49.118;12.146;2022-07-06T07:56:05;4.18;;;1.38;;
62024;SDS011;47978;49.118;12.146;2022-07-06T07:58:32;3.13;;;1.00;;
62024;SDS011;47978;49.118;12.146;2022-07-06T08:00:59;2.47;;;1.10;;
62024;SDS011;47978;49.118;12.146;2022-07-06T08:03:26;2.33;;;0.98;;
62024;SDS011;47978;49.118;12.146;2022-07-06T08:05:52;2.30;;;1.00;;
62024;SDS011;47978;49.118;12.146;2022-07-06T08:08:20;1.35;;;0.90;;
62024;SDS011;47978;49.118;12.146;2022-07-06T08:10:47;1.75;;;1.00;;
62024;SDS011;47978;49.118;12.146;2022-07-06T08:13:34;1.88;;;1.00;;
62024;SDS011;47978;49.118;12.146;2022-07-06T08:16:00;2.35;;;1.00;;
62024;SDS011;47978;49.118;12.146;2022-07-06T08:18:27;4.35;;;1.20;;
62024;SDS011;47978;49.118;12.146;2022-07-06T08:20:55;1.52;;;1.00;;
62024;SDS011;47978;49.118;12.146;2022-07-06T08:23:43;1.42;;;1.00;;
62024;SDS011;47978;49.118;12.146;2022-07-06T08:26:09;1.85;;;0.98;;
62024;SDS011;47978;49.118;12.146;2022-07-06T08:28:56;4.50;;;1.38;;
62024;SDS011;47978;49.118;12.146;2022-07-06T08:31:23;1.45;;;0.90;;
62024;SDS011;47978;49.118;12.146;2022-07-06T08:34:09;1.45;;;1.02;;
62024;SDS011;47978;49.118;12.146;2022-07-06T08:36:36;1.38;;;0.88;;
62024;SDS011;47978;49.118;12.146;2022-07-06T08:39:04;1.85;;;1.00;;
62024;SDS011;47978;49.118;12.146;2022-07-06T08:41:30;1.02;;;0.90;;
62024;SDS011;47978;49.118;12.146;2022-07-06T08:43:57;3.25;;;1.00;;
62024;SDS011;47978;49.118;12.146;2022-07-06T08:46:24;6.88;;;1.17;;
62024;SDS011;47978;49.118;12.146;2022-07-06T08:48:53;1.60;;;1.10;;
62024;SDS011;47978;49.118;12.146;2022-07-06T08:51:21;2.75;;;0.90;;
62024;SDS011;47978;49.118;12.146;2022-07-06T08:53:53;1.27;;;0.70;;
62024;SDS011;47978;49.118;12.146;2022-07-06T08:56:22;2.22;;;0.88;;
62024;SDS011;47978;49.118;12.146;2022-07-06T08:58:49;2.17;;;0.90;;
62024;SDS011;47978;49.118;12.146;2022-07-06T09:01:16;1.20;;;0.90;;
62024;SDS011;47978;49.118;12.146;2022-07-06T09:03:44;1.75;;;1.00;;
62024;SDS011;47978;49.118;12.146;2022-07-06T09:06:13;1.67;;;0.95;;
62024;SDS011;47978;49.118;12.146;2022-07-06T09:08:43;1.27;;;0.98;;
62024;SDS011;47978;49.118;12.146;2022-07-06T09:11:10;1.35;;;0.80;;
62024;SDS011;47978;49.118;12.146;2022-07-06T09:13:38;1.05;;;0.82;;
62024;SDS011;47978;49.118;12.146;2022-07-06T09:16:11;2.65;;;0.90;;
62024;SDS011;47978;49.118;12.146;2022-07-06T09:18:59;1.08;;;0.80;;
62024;SDS011;47978;49.118;12.146;2022-07-06T09:21:26;3.05;;;0.88;;
62024;SDS011;47978;49.118;12.146;2022-07-06T09:23:54;1.33;;;0.90;;
62024;SDS011;47978;49.118;12.146;2022-07-06T09:26:22;0.95;;;0.80;;
62024;SDS011;47978;49.118;12.146;2022-07-06T09:28:50;2.53;;;0.80;;
62024;SDS011;47978;49.118;12.146;2022-07-06T09:31:17;1.65;;;0.82;;
62024;SDS011;47978;49.118;12.146;2022-07-06T09:33:53;1.63;;;1.00;;
62024;SDS011;47978;49.118;12.146;2022-07-06T09:39:16;2.50;;;0.95;;
62024;SDS011;47978;49.118;12.146;2022-07-06T09:41:43;2.17;;;0.90;;
62024;SDS011;47978;49.118;12.146;2022-07-06T09:44:12;1.30;;;0.80;;
62024;SDS011;47978;49.118;12.146;2022-07-06T09:46:39;1.30;;;0.80;;
62024;SDS011;47978;49.118;12.146;2022-07-06T09:49:07;1.75;;;1.02;;
62024;SDS011;47978;49.118;12.146;2022-07-06T09:51:35;1.42;;;0.77;;
62024;SDS011;47978;49.118;12.146;2022-07-06T09:54:03;1.67;;;0.80;;
62024;SDS011;47978;49.118;12.146;2022-07-06T09:56:35;1.42;;;0.82;;
62024;SDS011;47978;49.118;12.146;2022-07-06T09:59:04;1.45;;;0.95;;
62024;SDS011;47978;49.118;12.146;2022-07-06T10:01:36;2.72;;;0.85;;
62024;SDS011;47978;49.118;12.146;2022-07-06T10:04:03;0.88;;;0.70;;
62024;SDS011;47978;49.118;12.146;2022-07-06T10:06:31;0.80;;;0.70;;
62024;SDS011;47978;49.118;12.146;2022-07-06T10:08:58;1.58;;;1.00;;
62024;SDS011;47978;49.118;12.146;2022-07-06T10:11:26;1.40;;;0.80;;
62024;SDS011;47978;49.118;12.146;2022-07-06T10:13:55;2.58;;;0.80;;
62024;SDS011;47978;49.118;12.146;2022-07-06T10:16:23;1.10;;;0.90;;
62024;SDS011;47978;49.118;12.146;2022-07-06T10:18:52;1.65;;;1.00;;
62024;SDS011;47978;49.118;12.146;2022-07-06T10:21:18;1.48;;;0.95;;
62024;SDS011;47978;49.118;12.146;2022-07-06T10:23:45;1.63;;;1.00;;
62024;SDS011;47978;49.118;12.146;2022-07-06T10:26:12;1.05;;;0.80;;
62024;SDS011;47978;49.118;12.146;2022-07-06T10:28:41;2.33;;;0.77;;
62024;SDS011;47978;49.118;12.146;2022-07-06T10:31:08;2.00;;;0.80;;
62024;SDS011;47978;49.118;12.146;2022-07-06T10:33:36;2.70;;;0.90;;
62024;SDS011;47978;49.118;12.146;2022-07-06T10:36:06;1.85;;;0.90;;
62024;SDS011;47978;49.118;12.146;2022-07-06T10:38:36;1.45;;;0.80;;
62024;SDS011;47978;49.118;12.146;2022-07-06T10:41:03;4.30;;;0.90;;
62024;SDS011;47978;49.118;12.146;2022-07-06T10:43:31;1.65;;;0.65;;
62024;SDS011;47978;49.118;12.146;2022-07-06T10:45:58;2.53;;;0.80;;
62024;SDS011;47978;49.118;12.146;2022-07-06T10:48:25;2.15;;;0.80;;
62024;SDS011;47978;49.118;12.146;2022-07-06T10:51:00;0.88;;;0.65;;
62024;SDS011;47978;49.118;12.146;2022-07-06T10:53:30;1.30;;;0.60;;
62024;SDS011;47978;49.118;12.146;2022-07-06T10:55:58;3.00;;;1.50;;
62024;SDS011;47978;49.118;12.146;2022-07-06T10:58:34;2.17;;;0.90;;
62024;SDS011;47978;49.118;12.146;2022-07-06T11:01:02;2.28;;;1.05;;
62024;SDS011;47978;49.118;12.146;2022-07-06T11:03:30;1.05;;;0.70;;
62024;SDS011;47978;49.118;12.146;2022-07-06T11:08:48;1.70;;;0.90;;
62024;SDS011;47978;49.118;12.146;2022-07-06T11:11:23;2.03;;;0.80;;
62024;SDS011;47978;49.118;12.146;2022-07-06T11:14:01;2.53;;;1.13;;
62024;SDS011;47978;49.118;12.146;2022-07-06T11:16:30;2.10;;;0.90;;
62024;SDS011;47978;49.118;12.146;2022-07-06T11:18:59;0.88;;;0.80;;
62024;SDS011;47978;49.118;12.146;2022-07-06T11:21:35;1.27;;;0.70;;
62024;SDS011;47978;49.118;12.146;2022-07-06T11:24:08;1.40;;;0.80;;
62024;SDS011;47978;49.118;12.146;2022-07-06T11:26:36;0.73;;;0.70;;
62024;SDS011;47978;49.118;12.146;2022-07-06T11:29:07;1.00;;;0.70;;
62024;SDS011;47978;49.118;12.146;2022-07-06T11:31:35;1.17;;;0.70;;
62024;SDS011;47978;49.118;12.146;2022-07-06T11:34:04;0.60;;;0.60;;
62024;SDS011;47978;49.118;12.146;2022-07-06T11:36:31;1.52;;;0.80;;
62024;SDS011;47978;49.118;12.146;2022-07-06T11:39:04;4.05;;;0.95;;
62024;SDS011;47978;49.118;12.146;2022-07-06T11:41:32;3.83;;;0.88;;
62024;SDS011;47978;49.118;12.146;2022-07-06T11:44:00;1.58;;;0.75;;
62024;SDS011;47978;49.118;12.146;2022-07-06T11:46:27;3.50;;;0.82;;
62024;SDS011;47978;49.118;12.146;2022-07-06T11:48:55;1.02;;;0.70;;
62024;SDS011;47978;49.118;12.146;2022-07-06T11:51:23;1.50;;;0.80;;
62024;SDS011;47978;49.118;12.146;2022-07-06T11:53:51;1.25;;;0.60;;
62024;SDS011;47978;49.118;12.146;2022-07-06T11:56:21;1.17;;;0.70;;
62024;SDS011;47978;49.118;12.146;2022-07-06T11:58:50;1.67;;;0.90;;
62024;SDS011;47978;49.118;12.146;2022-07-06T12:01:16;1.42;;;0.80;;
62024;SDS011;47978;49.118;12.146;2022-07-06T12:03:43;1.02;;;0.65;;
62024;SDS011;47978;49.118;12.146;2022-07-06T12:06:15;0.93;;;0.77;;
62024;SDS011;47978;49.118;12.146;2022-07-06T12:08:44;2.47;;;0.90;;
62024;SDS011;47978;49.118;12.146;2022-07-06T12:11:16;1.95;;;0.85;;
62024;SDS011;47978;49.118;12.146;2022-07-06T12:13:43;1.38;;;0.60;;
62024;SDS011;47978;49.118;12.146;2022-07-06T12:16:11;2.20;;;0.73;;
62024;SDS011;47978;49.118;12.146;2022-07-06T12:18:39;0.57;;;0.50;;
62024;SDS011;47978;49.118;12.146;2022-07-06T12:21:09;1.38;;;0.73;;
62024;SDS011;47978;49.118;12.146;2022-07-06T12:23:40;0.82;;;0.77;;
62024;SDS011;47978;49.118;12.146;2022-07-06T12:26:08;5.80;;;1.00;;
62024;SDS011;47978;49.118;12.146;2022-07-06T12:28:35;0.93;;;0.80;;
62024;SDS011;47978;49.118;12.146;2022-07-06T12:31:02;2.67;;;0.68;;
62024;SDS011;47978;49.118;12.146;2022-07-06T12:33:30;1.27;;;0.82;;
62024;SDS011;47978;49.118;12.146;2022-07-06T12:36:07;1.27;;;0.93;;
62024;SDS011;47978;49.118;12.146;2022-07-06T12:38:35;2.80;;;1.20;;
62024;SDS011;47978;49.118;12.146;2022-07-06T12:41:02;0.80;;;0.70;;
62024;SDS011;47978;49.118;12.146;2022-07-06T12:43:35;0.80;;;0.70;;
62024;SDS011;47978;49.118;12.146;2022-07-06T12:48:54;0.70;;;0.63;;
62024;SDS011;47978;49.118;12.146;2022-07-06T12:51:20;1.45;;;0.70;;
62024;SDS011;47978;49.118;12.146;2022-07-06T12:53:48;2.72;;;0.90;;
62024;SDS011;47978;49.118;12.146;2022-07-06T12:56:15;1.45;;;0.68;;
62024;SDS011;47978;49.118;12.146;2022-07-06T12:58:54;2.65;;;0.88;;
62024;SDS011;47978;49.118;12.146;2022-07-06T13:01:21;1.10;;;0.70;;
62024;SDS011;47978;49.118;12.146;2022-07-06T13:03:48;1.25;;;0.85;;
62024;SDS011;47978;49.118;12.146;2022-07-06T13:06:31;1.38;;;0.80;;
62024;SDS011;47978;49.118;12.146;2022-07-06T13:08:59;2.88;;;0.80;;
62024;SDS011;47978;49.118;12.146;2022-07-06T13:11:26;2.78;;;0.85;;
62024;SDS011;47978;49.118;12.146;2022-07-06T13:13:53;2.15;;;0.73;;
62024;SDS011;47978;49.118;12.146;2022-07-06T13:16:19;1.65;;;0.85;;
62024;SDS011;47978;49.118;12.146;2022-07-06T13:18:46;2.47;;;0.80;;
62024;SDS011;47978;49.118;12.146;2022-07-06T13:21:14;2.33;;;0.80;;
62024;SDS011;47978;49.118;12.146;2022-07-06T13:23:40;0.80;;;0.70;;
62024;SDS011;47978;49.118;12.146;2022-07-06T13:26:07;1.02;;;0.73;;
62024;SDS011;47978;49.118;12.146;2022-07-06T13:28:34;3.88;;;0.90;;
62024;SDS011;47978;49.118;12.146;2022-07-06T13:31:00;1.48;;;0.90;;
62024;SDS011;47978;49.118;12.146;2022-07-06T13:33:27;2.13;;;0.77;;
62024;SDS011;47978;49.118;12.146;2022-07-06T13:35:54;0.88;;;0.70;;
62024;SDS011;47978;49.118;12.146;2022-07-06T13:38:22;0.98;;;0.60;;
62024;SDS011;47978;49.118;12.146;2022-07-06T13:40:49;2.28;;;0.65;;
62024;SDS011;47978;49.118;12.146;2022-07-06T13:43:15;1.58;;;0.70;;
62024;SDS011;47978;49.118;12.146;2022-07-06T13:45:42;0.90;;;0.60;;
62024;SDS011;47978;49.118;12.146;2022-07-06T13:48:08;2.15;;;0.80;;
62024;SDS011;47978;49.118;12.146;2022-07-06T13:50:35;1.40;;;0.90;;
62024;SDS011;47978;49.118;12.146;2022-07-06T13:53:02;2.30;;;0.75;;
62024;SDS011;47978;49.118;12.146;2022-07-06T13:55:30;1.60;;;0.80;;
62024;SDS011;47978;49.118;12.146;2022-07-06T13:57:57;1.60;;;0.80;;
62024;SDS011;47978;49.118;12.146;2022-07-06T14:00:24;5.55;;;1.05;;
62024;SDS011;47978;49.118;12.146;2022-07-06T14:02:50;2.28;;;1.13;;
62024;SDS011;47978;49.118;12.146;2022-07-06T14:05:17;8.02;;;4.55;;
62024;SDS011;47978;49.118;12.146;2022-07-06T14:07:44;9.32;;;4.60;;
62024;SDS011;47978;49.118;12.146;2022-07-06T14:10:10;5.95;;;3.05;;
62024;SDS011;47978;49.118;12.146;2022-07-06T14:12:38;3.75;;;1.10;;
62024;SDS011;47978;49.118;12.146;2022-07-06T14:15:05;2.75;;;1.17;;
62024;SDS011;47978;49.118;12.146;2022-07-06T14:17:33;2.65;;;1.30;;
62024;SDS011;47978;49.118;12.146;2022-07-06T14:19:59;2.47;;;1.40;;
62024;SDS011;47978;49.118;12.146;2022-07-06T14:22:26;1.42;;;0.90;;
62024;SDS011;47978;49.118;12.146;2022-07-06T14:24:52;2.28;;;0.77;;
62024;SDS011;47978;49.118;12.146;2022-07-06T14:27:19;3.47;;;1.48;;
62024;SDS011;47978;49.118;12.146;2022-07-06T14:29:47;2.67;;;0.60;;
62024;SDS011;47978;49.118;12.146;2022-07-06T14:32:14;3.35;;;0.70;;
62024;SDS011;47978;49.118;12.146;2022-07-06T14:34:40;1.83;;;0.90;;
62024;SDS011;47978;49.118;12.146;2022-07-06T14:37:07;2.33;;;0.90;;
62024;SDS011;47978;49.118;12.146;2022-07-06T14:39:34;1.75;;;0.80;;
62024;SDS011;47978;49.118;12.146;2022-07-06T14:42:00;1.40;;;0.60;;
62024;SDS011;47978;49.118;12.146;2022-07-06T14:44:27;0.77;;;0.70;;